createdAt,value
2023-04-15T00:01:37.312Z,6.91
2023-04-15T00:04:40.153Z,6.88
2023-04-15T00:07:42.700Z,6.99
2023-04-15T00:10:46.707Z,6.88
2023-04-15T00:13:49.440Z,7.02
2023-04-15T00:16:56.274Z,7.03
2023-04-15T00:20:00.011Z,6.96
2023-04-15T00:23:04.199Z,7.08
2023-04-15T00:26:07.562Z,6.98
2023-04-15T00:29:10.390Z,7.00
2023-04-15T00:32:13.445Z,7.14
2023-04-15T00:35:16.606Z,7.09
2023-04-15T00:38:18.999Z,7.08
2023-04-15T00:41:23.084Z,7.08
2023-04-15T00:44:25.769Z,7.09
2023-04-15T00:47:30.016Z,7.12
2023-04-15T00:50:33.718Z,7.17
2023-04-15T00:53:36.367Z,7.10
2023-04-15T00:56:39.798Z,7.21
2023-04-15T00:59:42.627Z,7.21
2023-04-15T01:02:45.759Z,7.30
2023-04-15T01:05:49.417Z,7.27
2023-04-15T01:08:51.766Z,7.24
2023-04-15T01:11:54.639Z,7.16
2023-04-15T01:14:57.367Z,7.05
2023-04-15T01:18:00.404Z,6.98
2023-04-15T01:21:03.885Z,7.03
2023-04-15T01:24:10.417Z,7.03
2023-04-15T01:27:12.725Z,7.01
2023-04-15T01:30:15.614Z,7.13
2023-04-15T01:33:17.955Z,7.04
2023-04-15T01:36:21.371Z,7.00
2023-04-15T01:39:23.707Z,6.85
2023-04-15T01:42:27.750Z,6.96
2023-04-15T01:45:30.312Z,6.86
2023-04-15T01:48:33.487Z,7.08
2023-04-15T01:51:35.814Z,7.08
2023-04-15T01:54:38.433Z,7.03
2023-04-15T01:57:41.234Z,7.15
2023-04-15T02:00:44.066Z,7.17
2023-04-15T02:03:48.037Z,7.14
2023-04-15T02:06:50.862Z,7.24
2023-04-15T02:09:53.427Z,7.08
2023-04-15T02:12:55.776Z,7.21
2023-04-15T02:15:59.738Z,7.17
2023-04-15T02:19:02.592Z,7.08
2023-04-15T02:22:05.375Z,7.15
2023-04-15T02:25:09.112Z,7.12
2023-04-15T02:28:12.369Z,7.12
2023-04-15T02:31:15.113Z,7.12
2023-04-15T02:34:17.513Z,7.20
2023-04-15T02:37:20.562Z,7.16
2023-04-15T02:40:22.929Z,7.20
2023-04-15T02:43:26.236Z,7.28
2023-04-15T02:46:28.588Z,7.34
2023-04-15T02:49:31.283Z,7.18
2023-04-15T02:52:33.620Z,7.37
2023-04-15T02:55:36.406Z,7.41
2023-04-15T02:58:40.698Z,7.29
2023-04-15T03:01:43.792Z,7.45
2023-04-15T03:04:46.491Z,7.46
2023-04-15T03:07:49.252Z,7.49
2023-04-15T03:10:53.097Z,7.51
2023-04-15T03:13:55.767Z,7.45
2023-04-15T03:16:59.549Z,7.50
2023-04-15T03:20:05.079Z,7.43
2023-04-15T03:23:07.631Z,7.56
2023-04-15T03:26:10.368Z,7.53
2023-04-15T03:29:12.726Z,7.49
2023-04-15T03:32:15.897Z,7.52
2023-04-15T03:35:18.241Z,7.55
2023-04-15T03:38:21.082Z,7.48
2023-04-15T03:41:23.638Z,7.49
2023-04-15T03:44:29.279Z,7.45
2023-04-15T03:47:32.181Z,7.35
2023-04-15T03:50:34.844Z,7.48
2023-04-15T03:53:37.125Z,7.54
2023-04-15T03:56:39.813Z,7.37
2023-04-15T03:59:42.114Z,7.51
2023-04-15T04:02:46.219Z,7.58
2023-04-15T04:05:49.002Z,7.63
2023-04-15T04:08:51.290Z,7.68
2023-04-15T04:11:53.885Z,7.66
2023-04-15T04:14:56.389Z,7.71
2023-04-15T04:17:58.990Z,7.71
2023-04-15T04:21:01.573Z,7.73
2023-04-15T04:24:04.621Z,7.80
2023-04-15T04:27:07.143Z,7.80
2023-04-15T04:30:09.952Z,7.79
2023-04-15T04:33:12.424Z,7.70
2023-04-15T04:36:15.023Z,7.76
2023-04-15T04:39:17.318Z,7.80
2023-04-15T04:42:20.067Z,7.81
2023-04-15T04:45:22.752Z,7.78
2023-04-15T04:48:26.021Z,7.70
2023-04-15T04:51:28.382Z,7.89
2023-04-15T04:54:31.619Z,7.80
2023-04-15T04:57:35.897Z,8.10
2023-04-15T05:00:39.014Z,8.13
2023-04-15T05:03:41.894Z,8.30
2023-04-15T05:06:44.832Z,8.38
2023-04-15T05:09:47.482Z,8.50
2023-04-15T05:12:50.545Z,8.67
2023-04-15T05:15:53.409Z,8.44
2023-04-15T05:18:56.189Z,8.74
2023-04-15T05:21:58.473Z,8.72
2023-04-15T05:25:01.143Z,8.89
2023-04-15T05:28:03.549Z,8.76
2023-04-15T05:31:07.368Z,8.61
2023-04-15T05:34:10.401Z,8.68
2023-04-15T05:37:13.117Z,8.30
2023-04-15T05:40:15.486Z,8.36
2023-04-15T05:43:18.117Z,8.45
2023-04-15T05:46:20.581Z,8.44
2023-04-15T05:49:23.297Z,8.54
2023-04-15T05:52:25.703Z,8.58
2023-04-15T05:55:28.371Z,8.77
2023-04-15T05:58:31.434Z,8.74
2023-04-15T06:01:34.402Z,8.61
2023-04-15T06:04:37.214Z,8.73
2023-04-15T06:07:39.650Z,8.40
2023-04-15T06:10:42.333Z,8.67
2023-04-15T06:13:44.662Z,8.54
2023-04-15T06:16:47.357Z,8.76
2023-04-15T06:19:51.793Z,8.74
2023-04-15T06:22:54.575Z,8.71
2023-04-15T06:25:56.878Z,8.79
2023-04-15T06:28:59.686Z,8.68
2023-04-15T06:32:02.204Z,8.84
2023-04-15T06:35:05.616Z,8.94
2023-04-15T06:38:08.005Z,8.99
2023-04-15T06:41:10.785Z,9.10
2023-04-15T06:44:13.143Z,9.05
2023-04-15T06:47:15.959Z,9.29
2023-04-15T06:50:18.695Z,9.21
2023-04-15T06:53:22.113Z,9.66
2023-04-15T06:56:24.436Z,9.66
2023-04-15T06:59:27.433Z,9.68
2023-04-15T07:02:29.898Z,9.65
2023-04-15T07:05:32.615Z,9.60
2023-04-15T07:08:35.028Z,10.06
2023-04-15T07:11:37.691Z,10.58
2023-04-15T07:14:40.169Z,11.01
2023-04-15T07:17:45.549Z,11.33
2023-04-15T07:20:48.331Z,10.99
2023-04-15T07:23:51.191Z,10.56
2023-04-15T07:26:59.476Z,10.50
2023-04-15T07:30:03.773Z,10.69
2023-04-15T07:33:07.137Z,10.73
2023-04-15T07:36:10.779Z,11.04
2023-04-15T07:39:13.595Z,10.90
2023-04-15T07:42:17.084Z,11.05
2023-04-15T07:45:20.153Z,11.24
2023-04-15T07:48:22.848Z,11.44
2023-04-15T07:51:25.724Z,11.74
2023-04-15T07:54:28.379Z,11.48
2023-04-15T07:57:31.004Z,11.61
2023-04-15T08:00:33.675Z,11.50
2023-04-15T08:03:36.626Z,11.48
2023-04-15T08:06:40.154Z,11.63
2023-04-15T08:09:42.968Z,11.70
2023-04-15T08:12:49.134Z,11.53
2023-04-15T08:16:14.284Z,11.41
2023-04-15T08:19:17.234Z,11.62
2023-04-15T08:22:21.304Z,12.01
2023-04-15T08:25:28.017Z,12.24
2023-04-15T08:28:30.910Z,12.16
2023-04-15T08:31:33.419Z,12.44
2023-04-15T08:34:36.387Z,12.54
2023-04-15T08:37:38.701Z,12.36
2023-04-15T08:40:43.447Z,12.36
2023-04-15T08:44:07.660Z,12.06
2023-04-15T08:47:14.746Z,11.89
2023-04-15T08:50:18.057Z,11.81
2023-04-15T08:53:21.633Z,12.15
2023-04-15T08:56:28.228Z,12.44
2023-04-15T08:59:31.516Z,12.31
2023-04-15T09:02:34.001Z,12.29
2023-04-15T09:05:37.620Z,12.26
2023-04-15T09:08:40.467Z,12.01
2023-04-15T09:11:43.293Z,12.12
2023-04-15T09:14:47.284Z,12.54
2023-04-15T09:17:50.127Z,12.54
2023-04-15T09:20:53.651Z,12.48
2023-04-15T09:24:01.661Z,12.23
2023-04-15T09:27:04.428Z,12.22
2023-04-15T09:30:09.307Z,12.16
2023-04-15T09:33:14.760Z,12.21
2023-04-15T09:36:17.520Z,12.46
2023-04-15T09:39:20.188Z,12.76
2023-04-15T09:42:26.982Z,12.97
2023-04-15T09:45:30.221Z,12.77
2023-04-15T09:48:32.865Z,12.42
2023-04-15T09:51:36.056Z,12.56
2023-04-15T09:54:39.320Z,12.74
2023-04-15T09:57:41.933Z,12.80
2023-04-15T10:00:45.321Z,12.72
2023-04-15T10:03:48.484Z,11.96
2023-04-15T10:06:51.365Z,12.04
2023-04-15T10:09:55.182Z,11.81
2023-04-15T10:12:57.587Z,12.13
2023-04-15T10:16:07.841Z,11.90
2023-04-15T10:19:11.260Z,11.84
2023-04-15T10:22:15.064Z,12.17
2023-04-15T10:25:18.395Z,12.16
2023-04-15T10:28:25.203Z,11.99
2023-04-15T10:31:28.556Z,12.00
2023-04-15T10:34:32.321Z,11.78
2023-04-15T10:37:39.204Z,11.78
2023-04-15T10:40:42.318Z,12.22
2023-04-15T10:43:54.504Z,12.66
2023-04-15T10:46:58.629Z,12.29
2023-04-15T10:50:02.609Z,12.31
2023-04-15T10:53:05.753Z,12.12
2023-04-15T10:56:08.630Z,11.69
2023-04-15T10:59:12.895Z,11.53
2023-04-15T11:02:15.621Z,11.46
2023-04-15T11:05:19.562Z,11.74
2023-04-15T11:08:55.642Z,11.58
2023-04-15T11:12:10.869Z,11.38
2023-04-15T11:15:42.298Z,11.15
2023-04-15T11:18:54.816Z,11.33
2023-04-15T11:21:57.502Z,11.95
2023-04-15T11:25:00.072Z,11.98
2023-04-15T11:28:02.888Z,11.76
2023-04-15T11:31:28.627Z,11.69
2023-04-15T11:34:33.705Z,12.11
2023-04-15T11:37:37.162Z,12.13
2023-04-15T11:40:40.311Z,12.22
2023-04-15T11:43:42.937Z,12.35
2023-04-15T11:46:45.684Z,12.32
2023-04-15T11:49:48.621Z,12.66
2023-04-15T11:52:58.978Z,12.27
2023-04-15T11:56:02.008Z,12.11
2023-04-15T11:59:04.459Z,11.93
2023-04-15T12:02:14.175Z,11.98
2023-04-15T12:05:17.259Z,12.30
2023-04-15T12:08:19.741Z,11.65
2023-04-15T12:11:36.279Z,12.22
2023-04-15T12:14:40.146Z,12.64
2023-04-15T12:17:51.990Z,12.75
2023-04-15T12:20:54.695Z,12.45
2023-04-15T12:23:58.215Z,12.57
2023-04-15T12:27:04.321Z,12.87
2023-04-15T12:30:08.116Z,12.74
2023-04-15T12:33:12.534Z,12.72
2023-04-15T12:36:16.618Z,12.77
2023-04-15T12:39:22.612Z,12.29
2023-04-15T12:42:25.286Z,12.44
2023-04-15T12:45:29.463Z,12.19
2023-04-15T12:48:33.327Z,12.15
2023-04-15T12:51:35.766Z,11.89
2023-04-15T12:54:39.615Z,12.03
2023-04-15T12:57:41.888Z,12.48
2023-04-15T13:00:44.851Z,12.32
2023-04-15T13:03:48.156Z,12.24
2023-04-15T13:06:50.916Z,12.24
2023-04-15T13:09:53.224Z,12.29
2023-04-15T13:12:56.845Z,12.63
2023-04-15T13:16:01.504Z,12.40
2023-04-15T13:19:04.346Z,12.48
2023-04-15T13:22:08.368Z,12.29
2023-04-15T13:25:11.711Z,12.41
2023-04-15T13:28:14.109Z,12.67
2023-04-15T13:31:16.951Z,12.61
2023-04-15T13:34:19.692Z,12.34
2023-04-15T13:37:28.013Z,12.27
2023-04-15T13:40:31.412Z,12.32
2023-04-15T13:43:34.368Z,12.25
2023-04-15T13:46:37.853Z,12.13
2023-04-15T13:49:41.149Z,12.33
2023-04-15T13:52:43.574Z,12.68
2023-04-15T13:55:46.298Z,12.78
2023-04-15T13:58:48.685Z,12.79
2023-04-15T14:01:51.402Z,12.57
2023-04-15T14:04:54.097Z,12.48
2023-04-15T14:07:56.488Z,12.29
2023-04-15T14:10:59.352Z,12.50
2023-04-15T14:14:01.658Z,12.72
2023-04-15T14:17:05.461Z,12.57
2023-04-15T14:20:09.434Z,12.63
2023-04-15T14:23:12.077Z,12.65
2023-04-15T14:26:14.774Z,12.69
2023-04-15T14:29:17.970Z,12.67
2023-04-15T14:32:21.295Z,12.64
2023-04-15T14:35:26.562Z,12.54
2023-04-15T14:38:28.975Z,12.39
2023-04-15T14:41:31.580Z,12.57
2023-04-15T14:44:33.921Z,12.56
2023-04-15T14:47:36.644Z,12.31
2023-04-15T14:50:40.005Z,12.23
2023-04-15T14:53:42.633Z,12.30
2023-04-15T14:56:44.957Z,12.20
2023-04-15T14:59:47.634Z,12.26
2023-04-15T15:02:50.019Z,12.27
2023-04-15T15:05:52.918Z,12.33
2023-04-15T15:08:55.371Z,12.32
2023-04-15T15:11:58.305Z,12.36
2023-04-15T15:15:03.035Z,12.44
2023-04-15T15:18:07.864Z,12.38
2023-04-15T15:21:10.907Z,12.28
2023-04-15T15:24:13.589Z,12.13
2023-04-15T15:27:16.065Z,12.02
2023-04-15T15:30:18.799Z,12.08
2023-04-15T15:33:21.380Z,12.11
2023-04-15T15:36:24.459Z,12.20
2023-04-15T15:39:27.658Z,12.09
2023-04-15T15:42:32.359Z,12.14
2023-04-15T15:45:35.605Z,11.94
2023-04-15T15:48:38.272Z,11.95
2023-04-15T15:51:40.605Z,11.87
2023-04-15T15:54:43.736Z,11.82
2023-04-15T15:57:46.497Z,11.81
2023-04-15T16:00:49.483Z,11.71
2023-04-15T16:03:52.329Z,11.76
2023-04-15T16:06:54.833Z,11.85
2023-04-15T16:09:57.753Z,11.52
2023-04-15T16:13:00.265Z,11.65
2023-04-15T16:16:02.832Z,11.45
2023-04-15T16:19:05.851Z,11.22
2023-04-15T16:22:08.908Z,10.98
2023-04-15T16:25:11.374Z,10.74
2023-04-15T16:28:25.768Z,10.95
2023-04-15T16:31:30.040Z,10.80
2023-04-15T16:34:32.683Z,10.95
2023-04-15T16:37:36.222Z,11.13
2023-04-15T16:40:40.255Z,11.31
2023-04-15T16:43:43.689Z,11.19
2023-04-15T16:46:46.395Z,11.28
2023-04-15T16:49:48.735Z,11.32
2023-04-15T16:52:51.369Z,11.41
2023-04-15T16:55:53.923Z,11.43
2023-04-15T16:58:56.842Z,11.36
2023-04-15T17:01:59.545Z,11.02
2023-04-15T17:05:02.272Z,10.91
2023-04-15T17:08:05.775Z,11.00
2023-04-15T17:11:08.433Z,11.06
2023-04-15T17:14:10.963Z,11.03
2023-04-15T17:17:13.668Z,10.81
2023-04-15T17:20:17.477Z,10.84
2023-04-15T17:23:20.077Z,10.88
2023-04-15T17:26:22.407Z,10.80
2023-04-15T17:29:25.145Z,10.79
2023-04-15T17:32:31.840Z,10.68
2023-04-15T17:35:34.731Z,10.67
2023-04-15T17:38:37.138Z,10.56
2023-04-15T17:41:39.757Z,10.56
2023-04-15T17:44:42.138Z,10.65
2023-04-15T17:47:44.848Z,10.62
2023-04-15T17:50:47.531Z,10.57
2023-04-15T17:53:51.114Z,10.61
2023-04-15T17:56:54.031Z,10.47
2023-04-15T17:59:59.789Z,10.36
2023-04-15T18:03:02.366Z,10.41
2023-04-15T18:06:05.430Z,10.23
2023-04-15T18:09:09.100Z,10.39
2023-04-15T18:12:11.762Z,10.44
2023-04-15T18:15:14.607Z,10.31
2023-04-15T18:18:17.308Z,10.22
2023-04-15T18:21:19.722Z,10.27
2023-04-15T18:24:22.655Z,10.27
2023-04-15T18:27:25.001Z,10.32
2023-04-15T18:30:27.647Z,10.19
2023-04-15T18:33:30.002Z,10.19
2023-04-15T18:36:32.845Z,10.24
2023-04-15T18:39:35.316Z,10.16
2023-04-15T18:42:37.991Z,10.22
2023-04-15T18:45:40.561Z,10.23
2023-04-15T18:48:43.294Z,10.22
2023-04-15T18:51:45.664Z,10.08
2023-04-15T18:54:48.284Z,10.22
2023-04-15T18:57:51.414Z,10.21
2023-04-15T19:00:54.499Z,10.23
2023-04-15T19:03:57.323Z,10.21
2023-04-15T19:07:00.183Z,10.10
2023-04-15T19:10:04.452Z,10.16
2023-04-15T19:13:07.475Z,10.00
2023-04-15T19:16:09.813Z,10.05
2023-04-15T19:19:14.702Z,10.12
2023-04-15T19:22:17.195Z,10.09
2023-04-15T19:25:19.975Z,10.00
2023-04-15T19:28:22.349Z,10.06
2023-04-15T19:31:26.118Z,10.06
2023-04-15T19:34:28.522Z,10.04
2023-04-15T19:37:31.389Z,9.98
2023-04-15T19:40:33.892Z,9.92
2023-04-15T19:43:37.114Z,9.99
2023-04-15T19:46:40.415Z,9.98
2023-04-15T19:49:43.468Z,10.00
2023-04-15T19:52:45.956Z,10.02
2023-04-15T19:55:48.959Z,10.07
2023-04-15T19:58:53.115Z,9.96
2023-04-15T20:01:55.859Z,10.04
2023-04-15T20:04:58.574Z,10.08
2023-04-15T20:08:03.039Z,10.07
2023-04-15T20:11:05.837Z,10.05
2023-04-15T20:14:08.329Z,10.11
2023-04-15T20:17:11.176Z,10.12
2023-04-15T20:20:13.575Z,10.13
2023-04-15T20:23:16.270Z,10.12
2023-04-15T20:26:19.668Z,10.09
2023-04-15T20:29:22.419Z,10.06
2023-04-15T20:32:25.055Z,9.92
2023-04-15T20:35:30.926Z,9.87
2023-04-15T20:38:33.360Z,9.93
2023-04-15T20:41:36.068Z,9.80
2023-04-15T20:44:38.654Z,9.92
2023-04-15T20:47:41.626Z,9.90
2023-04-15T20:50:43.994Z,9.94
2023-04-15T20:53:46.719Z,9.92
2023-04-15T20:56:49.358Z,9.98
2023-04-15T20:59:52.156Z,9.96
2023-04-15T21:02:54.660Z,9.89
2023-04-15T21:05:57.409Z,9.86
2023-04-15T21:08:59.819Z,9.71
2023-04-15T21:12:02.587Z,9.75
2023-04-15T21:15:05.989Z,9.75
2023-04-15T21:18:08.625Z,9.70
2023-04-15T21:21:11.197Z,9.54
2023-04-15T21:24:13.841Z,9.68
2023-04-15T21:27:16.175Z,9.68
2023-04-15T21:30:18.853Z,9.72
2023-04-15T21:33:21.316Z,9.60
2023-04-15T21:36:23.943Z,9.61
2023-04-15T21:39:26.423Z,9.55
2023-04-15T21:42:30.006Z,9.40
2023-04-15T21:45:32.488Z,9.51
2023-04-15T21:48:35.440Z,9.51
2023-04-15T21:51:37.772Z,9.53
2023-04-15T21:54:40.362Z,9.52
2023-04-15T21:57:42.667Z,9.41
2023-04-15T22:00:45.471Z,9.47
2023-04-15T22:03:48.374Z,9.25
2023-04-15T22:06:52.245Z,9.40
2023-04-15T22:09:54.944Z,9.36
2023-04-15T22:13:01.480Z,9.35
2023-04-15T22:16:04.150Z,9.38
2023-04-15T22:19:06.699Z,9.28
2023-04-15T22:22:09.857Z,9.38
2023-04-15T22:25:12.542Z,9.30
2023-04-15T22:28:15.347Z,9.25
2023-04-15T22:31:17.681Z,9.13
2023-04-15T22:34:21.619Z,9.03
2023-04-15T22:37:24.298Z,9.14
2023-04-15T22:40:26.948Z,9.13
2023-04-15T22:43:29.318Z,9.07
2023-04-15T22:46:32.027Z,9.06
2023-04-15T22:49:35.208Z,8.96
2023-04-15T22:52:38.087Z,8.92
2023-04-15T22:55:44.048Z,9.04
2023-04-15T22:58:47.126Z,9.02
2023-04-15T23:01:49.707Z,8.96
2023-04-15T23:04:52.561Z,8.94
2023-04-15T23:07:55.020Z,8.90
2023-04-15T23:10:57.634Z,8.88
2023-04-15T23:13:59.966Z,8.91
2023-04-15T23:17:02.634Z,8.95
2023-04-15T23:20:05.742Z,8.93
2023-04-15T23:23:08.362Z,8.84
2023-04-15T23:26:10.653Z,8.68
2023-04-15T23:29:13.263Z,8.70
2023-04-15T23:32:15.562Z,8.65
2023-04-15T23:35:18.194Z,8.65
2023-04-15T23:38:20.572Z,8.72
2023-04-15T23:41:23.188Z,8.82
2023-04-15T23:44:25.591Z,8.82
2023-04-15T23:47:28.299Z,8.79
2023-04-15T23:50:30.757Z,8.76
2023-04-15T23:53:33.618Z,8.78
2023-04-15T23:56:36.479Z,8.75
2023-04-15T23:59:39.115Z,8.69
